Time;durP1;ratioP1;P1;durP2;ratioP2;P2;SDS_P1;SDS_P2;PMS_P1;PMS_P2;Temp;Humidity;BMP_temperature;BMP_pressure;BME280_temperature;BME280_humidity;BME280_pressure;Samples;Min_cycle;Max_cycle;Signal;HPM_P1;HPM_P2
2023/08/12 00:00:30;;;;;;;58.70;7.37;;;;;;;;;;5071320;28;20055;-54
2023/08/12 00:02:56;;;;;;;91.97;9.20;;;;;;;;;;5087058;28;20273;-54
2023/08/12 00:05:21;;;;;;;71.80;8.53;;;;;;;;;;5089766;28;20263;-53
2023/08/12 00:07:48;;;;;;;115.55;10.88;;;;;;;;;;5086510;28;20773;-55
2023/08/12 00:10:13;;;;;;;60.92;7.72;;;;;;;;;;5087847;28;20418;-55
2023/08/12 00:12:39;;;;;;;91.07;9.50;;;;;;;;;;5087831;28;20546;-54
2023/08/12 00:15:07;;;;;;;71.05;8.35;;;;;;;;;;5090366;28;20356;-55
2023/08/12 00:17:33;;;;;;;72.88;8.30;;;;;;;;;;5087319;28;20036;-53
2023/08/12 00:19:58;;;;;;;61.47;7.40;;;;;;;;;;5086395;28;20028;-54
2023/08/12 00:22:23;;;;;;;63.97;7.82;;;;;;;;;;5073959;28;20492;-56
2023/08/12 00:24:49;;;;;;;142.23;12.90;;;;;;;;;;5087891;28;20039;-54
2023/08/12 00:27:14;;;;;;;67.93;7.83;;;;;;;;;;5086956;28;20143;-55
2023/08/12 00:29:39;;;;;;;84.72;9.23;;;;;;;;;;5085787;28;20034;-55
2023/08/12 00:32:05;;;;;;;92.40;9.02;;;;;;;;;;5085333;28;20846;-54
2023/08/12 00:34:30;;;;;;;66.95;8.07;;;;;;;;;;5089534;28;20120;-53
2023/08/12 00:36:55;;;;;;;54.77;6.77;;;;;;;;;;5087163;28;20063;-53
2023/08/12 00:39:20;;;;;;;102.00;9.17;;;;;;;;;;5086789;28;20246;-55
2023/08/12 00:41:46;;;;;;;117.13;10.97;;;;;;;;;;5086219;28;20416;-55
2023/08/12 00:44:12;;;;;;;60.67;7.65;;;;;;;;;;5087859;28;20282;-56
2023/08/12 00:46:38;;;;;;;82.53;8.57;;;;;;;;;;5085358;28;20043;-55
2023/08/12 00:49:04;;;;;;;78.80;8.45;;;;;;;;;;5086376;28;20015;-53
2023/08/12 00:51:29;;;;;;;68.20;8.15;;;;;;;;;;5085401;28;20029;-55
2023/08/12 00:53:56;;;;;;;149.88;12.75;;;;;;;;;;5084260;28;20024;-54
2023/08/12 00:56:22;;;;;;;60.35;7.45;;;;;;;;;;5086345;28;20036;-52
2023/08/12 00:58:47;;;;;;;125.13;11.52;;;;;;;;;;5085710;28;20084;-54
2023/08/12 01:01:13;;;;;;;68.05;8.00;;;;;;;;;;5085239;28;20409;-54
2023/08/12 01:03:38;;;;;;;54.65;7.22;;;;;;;;;;5085125;27;20329;-54
2023/08/12 01:06:04;;;;;;;63.35;7.03;;;;;;;;;;5085688;28;20024;-56
2023/08/12 01:08:30;;;;;;;67.17;7.73;;;;;;;;;;5086155;28;20047;-53
2023/08/12 01:11:01;;;;;;;111.60;10.63;;;;;;;;;;5083770;28;20273;-56
2023/08/12 01:13:34;;;;;;;67.97;7.40;;;;;;;;;;5087327;28;20486;-54
2023/08/12 01:16:03;;;;;;;58.38;6.97;;;;;;;;;;5084231;28;20264;-53
2023/08/12 01:18:28;;;;;;;72.70;7.65;;;;;;;;;;5087130;28;20035;-53
2023/08/12 01:20:53;;;;;;;142.73;12.00;;;;;;;;;;5065961;28;20031;-52
2023/08/12 01:23:20;;;;;;;51.07;6.87;;;;;;;;;;5088226;28;20051;-52
2023/08/12 01:25:45;;;;;;;129.77;11.55;;;;;;;;;;5086275;28;20820;-54
2023/08/12 01:28:11;;;;;;;61.90;7.18;;;;;;;;;;5086002;28;20023;-53
2023/08/12 01:30:41;;;;;;;74.20;7.95;;;;;;;;;;5069535;28;20047;-55
2023/08/12 01:33:35;;;;;;;60.53;7.10;;;;;;;;;;5084031;28;20020;-53
2023/08/12 01:36:27;;;;;;;68.22;7.55;;;;;;;;;;5062568;28;20036;-54
2023/08/12 01:38:55;;;;;;;135.07;12.20;;;;;;;;;;5080777;28;20342;-52
2023/08/12 01:41:20;;;;;;;59.65;7.35;;;;;;;;;;5086364;28;20282;-53
2023/08/12 01:43:46;;;;;;;109.82;10.27;;;;;;;;;;5086919;28;20016;-54
2023/08/12 01:46:11;;;;;;;79.97;8.32;;;;;;;;;;5085763;28;20039;-53
2023/08/12 01:48:36;;;;;;;57.90;6.78;;;;;;;;;;5086899;28;20448;-54
2023/08/12 01:51:02;;;;;;;67.43;7.50;;;;;;;;;;5084895;28;20028;-55
2023/08/12 01:53:28;;;;;;;80.85;7.82;;;;;;;;;;5085644;28;20261;-54
2023/08/12 01:55:53;;;;;;;138.38;11.82;;;;;;;;;;5085729;28;20043;-55
2023/08/12 01:58:18;;;;;;;48.05;6.72;;;;;;;;;;5087890;28;20027;-55
2023/08/12 02:00:43;;;;;;;94.10;9.13;;;;;;;;;;5085275;28;20056;-54
2023/08/12 02:03:09;;;;;;;62.77;7.43;;;;;;;;;;5085712;28;21176;-55
2023/08/12 02:05:34;;;;;;;77.00;7.87;;;;;;;;;;5086386;28;20677;-55
2023/08/12 02:07:59;;;;;;;153.57;12.02;;;;;;;;;;5085326;28;20527;-53
2023/08/12 02:10:24;;;;;;;75.10;7.87;;;;;;;;;;5087359;28;20020;-55
2023/08/12 02:12:50;;;;;;;107.38;9.57;;;;;;;;;;5083004;28;20011;-53
2023/08/12 02:15:15;;;;;;;66.13;7.33;;;;;;;;;;5084647;28;20497;-53
2023/08/12 02:17:40;;;;;;;57.20;7.53;;;;;;;;;;5084480;28;20795;-52
2023/08/12 02:20:06;;;;;;;66.25;8.00;;;;;;;;;;5085703;28;22113;-54
2023/08/12 02:22:31;;;;;;;83.95;8.45;;;;;;;;;;5086024;28;20035;-53
2023/08/12 02:24:56;;;;;;;121.13;10.93;;;;;;;;;;5084654;28;20046;-53
2023/08/12 02:27:21;;;;;;;80.45;8.40;;;;;;;;;;5082611;28;20169;-55
2023/08/12 02:29:47;;;;;;;121.10;10.47;;;;;;;;;;5083745;28;20102;-53
2023/08/12 02:32:12;;;;;;;60.50;7.53;;;;;;;;;;5083931;28;20441;-55
2023/08/12 02:34:37;;;;;;;61.58;7.15;;;;;;;;;;5085932;28;20477;-53
2023/08/12 02:37:02;;;;;;;79.83;8.13;;;;;;;;;;5083419;28;20091;-53
2023/08/12 02:39:28;;;;;;;88.55;8.93;;;;;;;;;;5085073;28;20073;-52
2023/08/12 02:41:53;;;;;;;140.30;11.93;;;;;;;;;;5082315;28;20023;-55
2023/08/12 02:44:18;;;;;;;54.13;7.07;;;;;;;;;;5085514;28;20393;-54
2023/08/12 02:46:43;;;;;;;64.77;7.63;;;;;;;;;;5084351;28;20250;-52
2023/08/12 02:49:09;;;;;;;52.58;6.78;;;;;;;;;;5070286;28;20248;-54
2023/08/12 02:51:34;;;;;;;72.57;7.93;;;;;;;;;;5085492;28;20027;-53
2023/08/12 02:53:59;;;;;;;122.20;10.87;;;;;;;;;;5083006;28;20771;-56
2023/08/12 02:56:24;;;;;;;63.87;7.67;;;;;;;;;;5077134;28;20714;-52
2023/08/12 02:58:50;;;;;;;115.13;10.32;;;;;;;;;;5080555;28;20274;-55
2023/08/12 03:01:15;;;;;;;52.03;6.90;;;;;;;;;;5084273;28;20226;-52
2023/08/12 03:03:41;;;;;;;65.10;7.40;;;;;;;;;;5088000;28;20428;-53
2023/08/12 03:06:06;;;;;;;72.32;8.52;;;;;;;;;;5089308;28;20067;-54
2023/08/12 03:08:31;;;;;;;59.85;7.35;;;;;;;;;;5079226;28;20020;-52
2023/08/12 03:11:00;;;;;;;148.10;13.10;;;;;;;;;;5086564;28;20060;-52
2023/08/12 03:13:26;;;;;;;73.40;8.23;;;;;;;;;;5087300;28;20704;-53
2023/08/12 03:15:51;;;;;;;136.13;11.68;;;;;;;;;;5085489;28;20036;-53
2023/08/12 03:18:16;;;;;;;86.00;8.30;;;;;;;;;;5088431;28;20035;-53
2023/08/12 03:20:41;;;;;;;66.97;7.40;;;;;;;;;;5087592;28;20837;-54
2023/08/12 03:23:06;;;;;;;78.20;8.00;;;;;;;;;;5086977;28;20016;-54
2023/08/12 03:25:32;;;;;;;95.40;8.97;;;;;;;;;;5087769;28;20593;-54
2023/08/12 03:27:57;;;;;;;132.07;11.73;;;;;;;;;;5087149;28;20299;-56
2023/08/12 03:30:22;;;;;;;94.10;8.73;;;;;;;;;;5088182;28;20253;-54
2023/08/12 03:32:48;;;;;;;83.67;8.57;;;;;;;;;;5085485;28;20492;-54
2023/08/12 03:35:13;;;;;;;69.15;7.70;;;;;;;;;;5088790;28;20031;-56
2023/08/12 03:37:38;;;;;;;57.03;7.32;;;;;;;;;;5088926;28;20492;-56
2023/08/12 03:40:04;;;;;;;166.02;13.23;;;;;;;;;;5089075;28;20047;-53
2023/08/12 03:42:29;;;;;;;67.40;7.82;;;;;;;;;;5087437;28;20401;-53
2023/08/12 03:44:54;;;;;;;125.90;11.10;;;;;;;;;;5085421;28;20051;-53
2023/08/12 03:47:23;;;;;;;106.47;9.43;;;;;;;;;;5072518;28;20687;-56
2023/08/12 03:49:48;;;;;;;68.13;7.78;;;;;;;;;;5087512;28;20063;-54
2023/08/12 03:52:13;;;;;;;76.40;8.30;;;;;;;;;;5087913;28;20154;-54
2023/08/12 03:54:39;;;;;;;85.85;8.88;;;;;;;;;;5089148;28;20409;-53
2023/08/12 03:57:04;;;;;;;106.83;9.57;;;;;;;;;;5086754;28;20115;-54
2023/08/12 03:59:29;;;;;;;97.28;9.18;;;;;;;;;;5087585;28;20339;-54
2023/08/12 04:01:55;;;;;;;158.33;12.70;;;;;;;;;;5087270;28;20029;-57
2023/08/12 04:04:20;;;;;;;63.90;7.47;;;;;;;;;;5089332;28;20766;-55
2023/08/12 04:06:48;;;;;;;74.90;7.97;;;;;;;;;;5087061;28;20727;-57
2023/08/12 04:09:13;;;;;;;84.93;8.20;;;;;;;;;;5085408;28;20580;-55
2023/08/12 04:11:38;;;;;;;58.65;7.95;;;;;;;;;;5087026;28;20036;-56
2023/08/12 04:14:03;;;;;;;108.38;10.15;;;;;;;;;;5087393;28;20084;-55
2023/08/12 04:16:29;;;;;;;83.70;8.13;;;;;;;;;;5086003;28;20043;-55
2023/08/12 04:18:54;;;;;;;125.95;11.43;;;;;;;;;;5086768;28;20145;-55
2023/08/12 04:21:19;;;;;;;70.20;8.03;;;;;;;;;;5087007;28;20089;-56
2023/08/12 04:23:44;;;;;;;76.95;8.15;;;;;;;;;;5086794;28;20751;-55
2023/08/12 04:26:10;;;;;;;53.47;6.87;;;;;;;;;;5086041;28;20424;-58
2023/08/12 04:28:35;;;;;;;59.42;7.20;;;;;;;;;;5088547;28;20725;-57
2023/08/12 04:31:00;;;;;;;115.23;10.27;;;;;;;;;;5085517;28;20032;-56
2023/08/12 04:33:25;;;;;;;62.63;6.93;;;;;;;;;;5086358;28;20269;-55
2023/08/12 04:35:52;;;;;;;70.13;7.13;;;;;;;;;;5086382;28;20961;-54
2023/08/12 04:38:18;;;;;;;59.03;6.50;;;;;;;;;;5088170;28;20016;-55
2023/08/12 04:40:43;;;;;;;57.08;6.60;;;;;;;;;;5087887;28;20028;-59
2023/08/12 04:43:09;;;;;;;139.10;12.23;;;;;;;;;;5085580;28;20496;-55
2023/08/12 04:45:34;;;;;;;61.92;7.18;;;;;;;;;;5087509;28;20331;-55
2023/08/12 04:47:59;;;;;;;119.87;10.90;;;;;;;;;;5085028;28;20469;-55
2023/08/12 04:50:25;;;;;;;68.45;7.57;;;;;;;;;;5084128;28;20351;-56
2023/08/12 04:52:50;;;;;;;58.80;6.80;;;;;;;;;;5088428;28;20020;-56
2023/08/12 04:55:15;;;;;;;41.70;6.13;;;;;;;;;;5084903;28;20080;-54
2023/08/12 04:57:41;;;;;;;178.60;113.03;;;;;;;;;;5085704;28;20254;-54
2023/08/12 05:00:09;;;;;;;97.73;8.83;;;;;;;;;;5085328;28;20032;-55
2023/08/12 05:02:34;;;;;;;47.83;6.03;;;;;;;;;;5086386;28;20372;-57
2023/08/12 05:05:00;;;;;;;119.10;11.02;;;;;;;;;;5087277;28;20030;-56
2023/08/12 05:07:26;;;;;;;65.82;7.32;;;;;;;;;;5086006;28;20031;-54
2023/08/12 05:09:51;;;;;;;63.93;6.63;;;;;;;;;;5087986;28;20042;-56
2023/08/12 05:12:16;;;;;;;63.87;6.50;;;;;;;;;;5084962;28;20265;-56
2023/08/12 05:14:41;;;;;;;48.85;5.90;;;;;;;;;;5088114;28;20016;-55
2023/08/12 05:17:06;;;;;;;100.38;10.07;;;;;;;;;;5086124;28;20040;-57
2023/08/12 05:19:32;;;;;;;149.80;61.00;;;;;;;;;;5088327;28;20490;-57
2023/08/12 05:21:57;;;;;;;94.40;10.43;;;;;;;;;;5085947;28;20274;-55
2023/08/12 05:24:22;;;;;;;52.65;10.80;;;;;;;;;;5089029;28;20027;-56
2023/08/12 05:26:48;;;;;;;74.27;8.43;;;;;;;;;;5085842;28;20073;-56
2023/08/12 05:29:13;;;;;;;144.20;122.30;;;;;;;;;;5085631;28;20616;-57
2023/08/12 05:31:38;;;;;;;139.13;113.70;;;;;;;;;;5072796;28;20555;-55
2023/08/12 05:34:04;;;;;;;244.32;156.95;;;;;;;;;;5083836;28;20258;-55
2023/08/12 05:36:29;;;;;;;150.57;126.07;;;;;;;;;;5085448;28;20035;-56
2023/08/12 05:38:54;;;;;;;157.33;126.03;;;;;;;;;;5084628;28;20593;-55
2023/08/12 05:41:20;;;;;;;353.02;314.58;;;;;;;;;;5086370;28;20293;-56
2023/08/12 05:43:45;;;;;;;517.55;472.73;;;;;;;;;;5088138;28;20101;-55
2023/08/12 05:46:10;;;;;;;213.37;150.07;;;;;;;;;;5084415;28;20051;-55
2023/08/12 05:48:35;;;;;;;465.70;421.80;;;;;;;;;;5085095;28;20276;-57
2023/08/12 05:51:01;;;;;;;522.13;470.17;;;;;;;;;;5070038;28;20270;-56
2023/08/12 05:53:26;;;;;;;421.17;380.47;;;;;;;;;;5085451;28;20332;-57
2023/08/12 05:55:51;;;;;;;499.43;453.43;;;;;;;;;;5084946;28;20298;-54
2023/08/12 05:58:17;;;;;;;357.20;326.20;;;;;;;;;;5083583;28;20268;-56
2023/08/12 06:00:45;;;;;;;370.17;337.20;;;;;;;;;;5084729;28;20039;-55
2023/08/12 06:03:11;;;;;;;405.20;362.90;;;;;;;;;;5084065;28;20035;-56
2023/08/12 06:05:37;;;;;;;362.15;328.80;;;;;;;;;;5084543;28;20100;-55
2023/08/12 06:08:03;;;;;;;416.42;374.73;;;;;;;;;;5066433;28;20020;-57
2023/08/12 06:10:28;;;;;;;286.27;255.95;;;;;;;;;;5084176;28;20019;-57
2023/08/12 06:12:53;;;;;;;259.63;235.43;;;;;;;;;;5084931;28;20073;-57
2023/08/12 06:15:18;;;;;;;119.53;101.47;;;;;;;;;;5073962;28;20065;-56
2023/08/12 06:17:44;;;;;;;116.67;103.37;;;;;;;;;;5086158;28;20016;-57
2023/08/12 06:20:09;;;;;;;260.27;232.07;;;;;;;;;;5084368;28;20039;-56
2023/08/12 06:22:34;;;;;;;105.43;71.40;;;;;;;;;;5086105;28;20031;-57
2023/08/12 06:25:00;;;;;;;178.88;136.93;;;;;;;;;;5083335;28;20076;-55
2023/08/12 06:27:25;;;;;;;99.33;55.57;;;;;;;;;;5070154;28;20430;-56
2023/08/12 06:29:50;;;;;;;126.30;109.20;;;;;;;;;;5086408;28;20257;-58
2023/08/12 06:32:15;;;;;;;261.57;232.70;;;;;;;;;;5084182;28;20676;-56
2023/08/12 06:34:41;;;;;;;131.17;103.00;;;;;;;;;;5086310;28;20249;-58
2023/08/12 06:37:06;;;;;;;154.82;61.38;;;;;;;;;;5083280;28;20036;-55
2023/08/12 06:39:31;;;;;;;155.68;88.75;;;;;;;;;;5084613;28;20091;-56
2023/08/12 06:41:58;;;;;;;140.23;106.13;;;;;;;;;;5086755;28;20088;-56
2023/08/12 06:44:23;;;;;;;162.90;146.00;;;;;;;;;;5085230;28;20094;-54
2023/08/12 06:46:49;;;;;;;117.07;95.63;;;;;;;;;;5084475;28;20395;-55
2023/08/12 06:49:15;;;;;;;222.60;129.33;;;;;;;;;;5085727;28;20811;-56
2023/08/12 06:51:40;;;;;;;325.48;292.40;;;;;;;;;;5084700;28;20044;-56
2023/08/12 06:54:05;;;;;;;197.27;122.50;;;;;;;;;;5083419;28;20020;-55
2023/08/12 06:56:30;;;;;;;159.70;142.40;;;;;;;;;;5084560;28;20088;-56
2023/08/12 06:58:56;;;;;;;198.90;168.90;;;;;;;;;;5070596;28;20119;-57
2023/08/12 07:01:21;;;;;;;297.63;220.53;;;;;;;;;;5083289;28;20028;-57
2023/08/12 07:03:46;;;;;;;182.40;164.43;;;;;;;;;;5084488;28;20281;-54
2023/08/12 07:06:11;;;;;;;214.67;179.73;;;;;;;;;;5081850;28;20035;-57
2023/08/12 07:08:37;;;;;;;226.87;204.93;;;;;;;;;;5084953;28;20016;-57
2023/08/12 07:11:02;;;;;;;208.10;176.97;;;;;;;;;;5084062;28;20369;-56
2023/08/12 07:13:27;;;;;;;352.90;317.15;;;;;;;;;;5087858;28;20084;-57
2023/08/12 07:15:52;;;;;;;215.90;195.37;;;;;;;;;;5084936;28;20118;-56
2023/08/12 07:18:18;;;;;;;321.63;287.77;;;;;;;;;;5083995;28;20269;-57
2023/08/12 07:20:43;;;;;;;219.07;198.00;;;;;;;;;;5084304;28;20032;-56
2023/08/12 07:23:08;;;;;;;295.05;255.38;;;;;;;;;;5083375;28;20031;-56
2023/08/12 07:25:33;;;;;;;265.92;241.23;;;;;;;;;;5082956;28;20032;-56
2023/08/12 07:27:59;;;;;;;391.55;356.38;;;;;;;;;;5084950;28;20110;-57
2023/08/12 07:30:24;;;;;;;267.92;242.88;;;;;;;;;;5082906;28;20024;-55
2023/08/12 07:32:49;;;;;;;156.05;140.18;;;;;;;;;;5085334;28;20385;-56
2023/08/12 07:35:15;;;;;;;222.17;171.57;;;;;;;;;;5085268;28;20015;-56
2023/08/12 07:37:40;;;;;;;245.03;219.73;;;;;;;;;;5084870;28;20073;-56
2023/08/12 07:40:06;;;;;;;173.43;134.50;;;;;;;;;;5083306;28;20261;-57
2023/08/12 07:42:31;;;;;;;292.27;266.73;;;;;;;;;;5084118;28;20036;-57
2023/08/12 07:44:56;;;;;;;169.83;141.73;;;;;;;;;;5084947;28;20012;-57
2023/08/12 07:47:21;;;;;;;169.10;150.80;;;;;;;;;;5082939;28;20312;-55
2023/08/12 07:49:46;;;;;;;386.60;352.93;;;;;;;;;;5088576;28;20250;-54
2023/08/12 07:52:12;;;;;;;268.43;231.17;;;;;;;;;;5087621;28;20156;-57
2023/08/12 07:54:37;;;;;;;246.03;222.73;;;;;;;;;;5088470;28;21007;-56
2023/08/12 07:57:03;;;;;;;270.03;241.93;;;;;;;;;;5090089;28;20118;-54
2023/08/12 07:59:28;;;;;;;162.55;114.80;;;;;;;;;;5087848;28;20057;-56
2023/08/12 08:01:54;;;;;;;110.35;81.25;;;;;;;;;;5089726;28;20449;-55
2023/08/12 08:04:19;;;;;;;275.17;247.97;;;;;;;;;;5088144;28;20019;-57
2023/08/12 08:06:44;;;;;;;243.27;219.73;;;;;;;;;;5087877;28;20338;-57
2023/08/12 08:09:10;;;;;;;210.38;142.85;;;;;;;;;;5088147;28;20031;-56
2023/08/12 08:11:35;;;;;;;267.13;240.45;;;;;;;;;;5089951;28;20032;-56
2023/08/12 08:14:01;;;;;;;156.65;122.57;;;;;;;;;;5071173;28;20035;-56
2023/08/12 08:16:26;;;;;;;144.37;124.30;;;;;;;;;;5086812;28;20092;-57
2023/08/12 08:18:51;;;;;;;177.23;158.38;;;;;;;;;;5088971;28;20036;-58
2023/08/12 08:21:16;;;;;;;209.90;148.33;;;;;;;;;;5085715;28;20031;-56
2023/08/12 08:23:42;;;;;;;472.87;367.80;;;;;;;;;;5072283;28;20031;-56
2023/08/12 08:26:08;;;;;;;170.40;137.30;;;;;;;;;;5084706;28;20028;-58
2023/08/12 08:28:34;;;;;;;209.77;187.55;;;;;;;;;;5088702;28;20163;-56
2023/08/12 08:30:59;;;;;;;179.18;159.65;;;;;;;;;;5089108;28;20081;-57
2023/08/12 08:33:25;;;;;;;366.73;326.77;;;;;;;;;;5086875;27;20023;-55
2023/08/12 08:35:50;;;;;;;216.82;193.32;;;;;;;;;;5085313;27;20093;-56
2023/08/12 08:38:15;;;;;;;193.43;140.60;;;;;;;;;;5087275;28;20015;-55
2023/08/12 08:40:41;;;;;;;207.97;185.60;;;;;;;;;;5086516;28;20027;-57
2023/08/12 08:43:07;;;;;;;245.55;219.30;;;;;;;;;;5084810;28;20157;-57
2023/08/12 08:45:35;;;;;;;252.55;226.20;;;;;;;;;;5088062;28;20024;-58
2023/08/12 08:48:02;;;;;;;139.05;112.10;;;;;;;;;;5088521;28;20077;-55
2023/08/12 08:50:27;;;;;;;270.65;231.70;;;;;;;;;;5085917;28;20461;-56
2023/08/12 08:52:55;;;;;;;272.25;203.85;;;;;;;;;;5089185;28;20024;-56
2023/08/12 08:55:21;;;;;;;328.30;292.50;;;;;;;;;;5086052;28;20131;-57
2023/08/12 08:57:46;;;;;;;374.50;302.88;;;;;;;;;;5086871;28;20099;-55
2023/08/12 09:00:12;;;;;;;244.17;191.97;;;;;;;;;;5085534;28;20412;-56
2023/08/12 09:02:38;;;;;;;246.95;215.68;;;;;;;;;;5086741;28;20439;-56
2023/08/12 09:05:04;;;;;;;304.85;249.15;;;;;;;;;;5086474;28;20084;-57
2023/08/12 09:07:31;;;;;;;237.55;204.30;;;;;;;;;;5084918;28;20081;-55
2023/08/12 09:09:57;;;;;;;125.28;82.47;;;;;;;;;;5085948;28;20091;-58
2023/08/12 09:12:22;;;;;;;246.63;179.15;;;;;;;;;;5085382;28;20036;-56
2023/08/12 09:14:48;;;;;;;145.00;125.90;;;;;;;;;;5085750;28;20020;-56
2023/08/12 09:17:14;;;;;;;245.55;174.93;;;;;;;;;;5083258;28;20046;-55
2023/08/12 09:19:39;;;;;;;163.65;142.05;;;;;;;;;;5068403;28;20008;-57
2023/08/12 09:22:09;;;;;;;145.30;120.90;;;;;;;;;;5084796;28;20076;-54
2023/08/12 09:24:34;;;;;;;154.10;103.13;;;;;;;;;;5087394;28;20068;-57
2023/08/12 09:26:59;;;;;;;291.03;184.90;;;;;;;;;;5085399;28;20027;-56
2023/08/12 09:29:31;;;;;;;499.70;284.53;;;;;;;;;;5085428;28;20250;-56
2023/08/12 09:32:09;;;;;;;162.88;145.32;;;;;;;;;;5086062;28;20081;-57
2023/08/12 09:34:34;;;;;;;246.57;179.60;;;;;;;;;;5086544;28;20110;-54
2023/08/12 09:36:59;;;;;;;304.67;236.30;;;;;;;;;;5085589;28;20114;-57
2023/08/12 09:39:25;;;;;;;458.50;352.90;;;;;;;;;;5088715;28;20114;-56
2023/08/12 09:41:51;;;;;;;442.45;396.52;;;;;;;;;;5085158;28;20068;-57
2023/08/12 09:44:16;;;;;;;206.77;132.68;;;;;;;;;;5087751;28;20126;-56
2023/08/12 09:46:41;;;;;;;124.27;101.53;;;;;;;;;;5087166;28;20036;-56
2023/08/12 09:49:07;;;;;;;322.38;287.67;;;;;;;;;;5085950;28;20020;-56
2023/08/12 09:51:35;;;;;;;326.17;264.15;;;;;;;;;;5082940;28;20715;-55
2023/08/12 09:54:01;;;;;;;313.63;273.17;;;;;;;;;;5086353;28;20552;-53
2023/08/12 09:56:29;;;;;;;215.13;145.93;;;;;;;;;;5083068;28;20027;-56
2023/08/12 09:58:55;;;;;;;230.75;189.88;;;;;;;;;;5083814;28;20035;-56
2023/08/12 10:01:23;;;;;;;351.83;272.50;;;;;;;;;;5084158;28;20038;-55
2023/08/12 10:03:49;;;;;;;256.75;230.95;;;;;;;;;;5086712;28;20098;-55
2023/08/12 10:06:15;;;;;;;219.30;188.77;;;;;;;;;;5083958;28;20111;-56
2023/08/12 10:08:40;;;;;;;135.50;113.38;;;;;;;;;;5087503;28;20012;-57
2023/08/12 10:11:06;;;;;;;126.07;112.70;;;;;;;;;;5083042;28;20635;-56
2023/08/12 10:13:31;;;;;;;281.42;251.77;;;;;;;;;;5085243;28;20020;-55
2023/08/12 10:15:57;;;;;;;491.58;446.92;;;;;;;;;;5085658;28;20595;-54
2023/08/12 10:18:22;;;;;;;286.65;205.38;;;;;;;;;;5084980;28;20043;-54
2023/08/12 10:20:47;;;;;;;204.43;180.40;;;;;;;;;;5085179;28;20056;-54
2023/08/12 10:23:14;;;;;;;257.23;220.48;;;;;;;;;;5082087;28;20431;-55
2023/08/12 10:25:41;;;;;;;275.02;246.40;;;;;;;;;;5086567;28;20028;-54
2023/08/12 10:28:06;;;;;;;173.63;142.55;;;;;;;;;;5085408;28;20050;-55
2023/08/12 10:30:33;;;;;;;390.07;347.73;;;;;;;;;;5083659;28;20036;-53
2023/08/12 10:32:59;;;;;;;380.25;285.20;;;;;;;;;;5084420;28;20262;-54
2023/08/12 10:35:39;;;;;;;466.33;387.80;;;;;;;;;;5083727;28;20061;-54
2023/08/12 10:38:05;;;;;;;137.23;99.63;;;;;;;;;;5086981;28;20034;-56
2023/08/12 10:40:30;;;;;;;243.23;160.27;;;;;;;;;;5082770;28;20036;-54
2023/08/12 10:42:56;;;;;;;284.10;253.47;;;;;;;;;;5085941;28;20058;-54
2023/08/12 10:45:21;;;;;;;355.10;234.50;;;;;;;;;;5084789;28;20024;-57
2023/08/12 10:47:49;;;;;;;223.90;200.70;;;;;;;;;;5085478;28;20081;-56
2023/08/12 10:50:18;;;;;;;177.88;156.98;;;;;;;;;;5084216;28;20028;-55
2023/08/12 10:52:45;;;;;;;104.55;88.90;;;;;;;;;;5085114;28;20473;-56
2023/08/12 10:55:17;;;;;;;267.55;226.23;;;;;;;;;;5085171;28;20075;-54
2023/08/12 10:57:42;;;;;;;178.77;157.82;;;;;;;;;;5084613;28;20089;-54
2023/08/12 11:00:11;;;;;;;152.73;123.75;;;;;;;;;;5082318;28;20500;-57
2023/08/12 11:02:37;;;;;;;169.27;151.32;;;;;;;;;;5084882;28;20094;-54
2023/08/12 11:05:03;;;;;;;149.55;112.70;;;;;;;;;;5085041;28;20614;-54
2023/08/12 11:07:32;;;;;;;181.65;96.38;;;;;;;;;;5083754;28;20492;-56
2023/08/12 11:10:04;;;;;;;124.22;95.18;;;;;;;;;;5085001;28;20054;-54
2023/08/12 11:12:34;;;;;;;228.30;143.40;;;;;;;;;;5084070;28;20028;-56
2023/08/12 11:15:00;;;;;;;388.17;308.67;;;;;;;;;;5083580;28;20016;-56
2023/08/12 11:17:32;;;;;;;216.57;146.27;;;;;;;;;;5083422;28;20412;-53
2023/08/12 11:19:57;;;;;;;234.23;186.20;;;;;;;;;;5084198;28;20035;-56
2023/08/12 11:22:23;;;;;;;287.08;213.27;;;;;;;;;;5082082;28;20032;-55
2023/08/12 11:24:48;;;;;;;152.67;126.83;;;;;;;;;;5087236;28;20536;-55
2023/08/12 11:27:14;;;;;;;186.38;138.73;;;;;;;;;;5087733;28;20068;-54
2023/08/12 11:29:39;;;;;;;170.25;143.90;;;;;;;;;;5088043;28;20024;-55
2023/08/12 11:32:05;;;;;;;142.10;108.10;;;;;;;;;;5091018;28;20024;-56
2023/08/12 11:34:30;;;;;;;195.95;115.68;;;;;;;;;;5088384;28;20020;-56
2023/08/12 11:36:56;;;;;;;155.40;123.00;;;;;;;;;;5088554;28;20112;-56
2023/08/12 11:39:23;;;;;;;308.58;207.57;;;;;;;;;;5087432;28;20465;-55
2023/08/12 11:41:50;;;;;;;169.80;142.85;;;;;;;;;;5087396;28;20142;-56
2023/08/12 11:44:15;;;;;;;292.77;261.70;;;;;;;;;;5073857;28;20036;-56
2023/08/12 11:46:41;;;;;;;108.05;80.57;;;;;;;;;;5072736;28;20062;-55
2023/08/12 11:49:06;;;;;;;149.93;115.40;;;;;;;;;;5088924;28;20031;-56
2023/08/12 11:51:31;;;;;;;175.80;104.27;;;;;;;;;;5085545;28;20055;-55
2023/08/12 11:53:57;;;;;;;332.80;298.25;;;;;;;;;;5086591;28;20260;-55
2023/08/12 11:56:22;;;;;;;189.32;86.82;;;;;;;;;;5086134;28;20034;-54
2023/08/12 11:58:51;;;;;;;220.48;175.50;;;;;;;;;;5086736;28;20081;-54
2023/08/12 12:01:16;;;;;;;107.25;81.43;;;;;;;;;;5089573;28;20046;-56
2023/08/12 12:03:42;;;;;;;192.10;158.57;;;;;;;;;;5087438;28;20027;-53
2023/08/12 12:06:07;;;;;;;132.00;105.47;;;;;;;;;;5087447;28;20270;-55
2023/08/12 12:08:32;;;;;;;411.03;306.30;;;;;;;;;;5087013;28;20054;-54
2023/08/12 12:11:03;;;;;;;133.20;93.63;;;;;;;;;;5086606;28;20051;-55
2023/08/12 12:13:29;;;;;;;237.05;178.38;;;;;;;;;;5087410;28;20541;-55
2023/08/12 12:15:55;;;;;;;324.98;290.42;;;;;;;;;;5088302;28;20435;-54
2023/08/12 12:18:20;;;;;;;210.50;182.37;;;;;;;;;;5084704;28;20701;-56
2023/08/12 12:20:58;;;;;;;154.63;137.53;;;;;;;;;;5086634;28;20281;-55
2023/08/12 12:23:27;;;;;;;217.93;144.68;;;;;;;;;;5084626;28;20476;-55
2023/08/12 12:26:02;;;;;;;256.08;229.73;;;;;;;;;;5088931;28;20024;-56
2023/08/12 12:28:27;;;;;;;229.65;170.30;;;;;;;;;;5085784;28;20028;-55
2023/08/12 12:30:53;;;;;;;125.03;81.18;;;;;;;;;;5088949;28;20025;-55
2023/08/12 12:33:18;;;;;;;291.05;259.73;;;;;;;;;;5089413;28;20035;-57
2023/08/12 12:35:43;;;;;;;218.80;193.07;;;;;;;;;;5084300;28;20450;-57
2023/08/12 12:38:09;;;;;;;192.13;171.77;;;;;;;;;;5087182;28;20020;-56
2023/08/12 12:40:34;;;;;;;414.50;302.00;;;;;;;;;;5084769;28;20032;-54
2023/08/12 12:42:59;;;;;;;331.97;295.77;;;;;;;;;;5085502;28;20019;-55
2023/08/12 12:45:25;;;;;;;275.27;193.17;;;;;;;;;;5084291;28;20815;-54
2023/08/12 12:47:50;;;;;;;140.52;125.50;;;;;;;;;;5087031;28;20099;-55
2023/08/12 12:50:16;;;;;;;147.13;130.88;;;;;;;;;;5085206;28;20027;-54
2023/08/12 12:52:42;;;;;;;154.75;129.63;;;;;;;;;;5086587;28;20034;-55
2023/08/12 12:55:08;;;;;;;274.17;243.10;;;;;;;;;;5086092;28;20020;-55
2023/08/12 12:57:33;;;;;;;223.38;154.35;;;;;;;;;;5084466;28;20016;-54
2023/08/12 12:59:58;;;;;;;219.67;195.80;;;;;;;;;;5083989;28;20196;-56
2023/08/12 13:02:23;;;;;;;203.47;171.53;;;;;;;;;;5085167;28;20266;-54
2023/08/12 13:04:49;;;;;;;137.07;112.87;;;;;;;;;;5088637;28;20004;-53
2023/08/12 13:07:15;;;;;;;172.23;146.35;;;;;;;;;;5088562;28;20043;-56
2023/08/12 13:09:40;;;;;;;221.82;165.70;;;;;;;;;;5087177;28;20205;-54
2023/08/12 13:12:05;;;;;;;209.68;188.85;;;;;;;;;;5087862;28;20049;-56
2023/08/12 13:14:30;;;;;;;227.63;154.10;;;;;;;;;;5084269;28;20033;-55
2023/08/12 13:16:56;;;;;;;192.13;171.53;;;;;;;;;;5086137;28;20066;-56
2023/08/12 13:19:21;;;;;;;154.33;110.07;;;;;;;;;;5086169;28;20112;-54
2023/08/12 13:21:46;;;;;;;320.50;280.87;;;;;;;;;;5082743;28;20415;-56
2023/08/12 13:24:12;;;;;;;396.07;302.40;;;;;;;;;;5086645;28;20034;-55
2023/08/12 13:26:37;;;;;;;231.57;168.80;;;;;;;;;;5086551;28;20562;-55
2023/08/12 13:29:03;;;;;;;150.33;109.73;;;;;;;;;;5088884;28;20303;-56
2023/08/12 13:31:28;;;;;;;180.13;117.57;;;;;;;;;;5068515;28;20062;-55
2023/08/12 13:33:53;;;;;;;172.83;149.60;;;;;;;;;;5085843;28;20509;-54
2023/08/12 13:36:19;;;;;;;246.73;220.30;;;;;;;;;;5086551;28;20540;-55
2023/08/12 13:38:44;;;;;;;224.37;175.27;;;;;;;;;;5085210;28;20028;-53
2023/08/12 13:41:09;;;;;;;141.67;125.90;;;;;;;;;;5086542;28;20042;-54
2023/08/12 13:43:34;;;;;;;187.83;110.00;;;;;;;;;;5086382;28;20378;-53
2023/08/12 13:46:00;;;;;;;229.60;204.85;;;;;;;;;;5084193;28;20036;-54
2023/08/12 13:48:27;;;;;;;201.93;170.98;;;;;;;;;;5083694;28;20016;-56
2023/08/12 13:50:52;;;;;;;122.38;80.80;;;;;;;;;;5081972;28;20036;-54
2023/08/12 13:53:17;;;;;;;132.85;116.65;;;;;;;;;;5086673;28;20019;-56
2023/08/12 13:55:43;;;;;;;198.60;149.52;;;;;;;;;;5084957;28;20051;-55